ADDS METAR Data INFO
IDs: Format: Raw Decoded Include TAF

Data at: 0835 UTC 21 Oct 2017

KLOL 210753Z AUTO 11007KT 10SM CLR M01/M06 A3013 RMK AO2 SLP208 T10111056 401561011 TSNO
KLOL 210653Z AUTO 34006KT 10SM CLR 03/M03 A3012 RMK AO2 SLP201 T00331033 TSNO
KLOL 210553Z AUTO 00000KT 10SM CLR 03/M03 A3011 RMK AO2 SLP198 T00331033 10106 20011 51018 TSNO
KLOL 210453Z AUTO 15003KT 10SM CLR 02/M04 A3010 RMK AO2 SLP197 T00171044 TSNO
KLOL 210353Z AUTO 31012KT 10SM CLR 04/M03 A3007 RMK AO2 SLP186 T00391028 TSNO
KLOL 210253Z AUTO 36004KT 10SM CLR 06/M04 A3005 RMK AO2 SLP181 T00611039 53017 TSNO
KLOL 210153Z AUTO 33008KT 10SM FEW085 07/M03 A3003 RMK AO2 SLP171 T00721033 TSNO
KLOL 210053Z AUTO 31011KT 10SM SCT085 09/M04 A3001 RMK AO2 SLP158 T00891039 TSNO
KLOL 202353Z AUTO 28015KT 10SM CLR 11/M07 A3000 RMK AO2 SLP153 T01061067 10128 20094 53008 TSNO
KLOL 202253Z AUTO 26010KT 10SM FEW065 12/M06 A2998 RMK AO2 SLP147 T01171056 TSNO
KLOL 202153Z AUTO 28013KT 10SM CLR 12/M06 A2997 RMK AO2 SLP133 T01171061 TSNO
KLOL 202053Z AUTO 28014G20KT 10SM FEW065 12/M05 A2997 RMK AO2 SLP134 T01221050 55001 TSNO
KLOL 201953Z AUTO 27015G21KT 10SM CLR 12/M05 A2997 RMK AO2 SLP129 T01171050 TSNO
KLOL 201853Z AUTO 27012KT 10SM SCT055 10/M04 A2997 RMK AO2 SLP136 T01001039 TSNO
KLOL 201753Z AUTO 28013KT 10SM FEW048 10/M03 A2997 RMK AO2 SLP135 60000 T01001033 10100 20039 50015 TSNO
KLOL 201653Z AUTO 27009KT 10SM FEW050 08/M03 A2998 RMK AO2 RAB1555E18 SLP139 P0000 T00831028 TSNO
KLOL 201553Z AUTO 28015KT 10SM CLR 07/M02 A2994 RMK AO2 SLP126 T00721022 TSNO
KLOL 201453Z AUTO 12004KT 10SM CLR 04/M03 A2993 RMK AO2 SLP121 60000 T00441028 51041 TSNO
KLOL 201353Z AUTO 25008KT 10SM CLR 04/M02 A2990 RMK AO2 SLP113 T00441022 TSNO
KLOL 201253Z AUTO 27019G25KT 10SM BKN110 07/M02 A2983 RMK AO2 PK WND 27029/1221 RAE1155B19E39 SLP084 P0000 T00671022 TSNO
KLOL 201153Z AUTO 29006KT 10SM -RA BKN070 OVC090 06/01 A2979 RMK AO2 PK WND 30034/1056 SLP066 P0000 60000 T00610006 10156 20050 53049 TSNO
KLOL 201053Z AUTO 30028G37KT 10SM -RA OVC055 06/02 A2974 RMK AO2 PK WND 27050/1027 WSHFT 1022 RAB05 PRESRR SLP047 P0000 T00560017 TSNO
KLOL 201043Z AUTO 30026G46KT 7SM -RA SCT048 BKN055 OVC085 06/03 A2972 RMK AO2 PK WND 27050/1027 WSHFT 1022 RAB05 PRESRR P0000 T00610028 TSNO
KLOL 201036Z AUTO 29036G50KT 2SM -RA SCT048 SCT055 OVC070 07/03 A2970 RMK AO2 PK WND 27050/1027 WSHFT 1022 VIS 3/4V5 RAB05 PRESRR P0000 T00720033 TSNO
KLOL 201029Z AUTO 28040G50KT 1 3/4SM -RA FEW055 OVC070 12/03 A2968 RMK AO2 PK WND 27050/1027 RAB05 PRESRR P0000 T01220033 TSNO
KLOL 200953Z AUTO 22018G23KT 10SM BKN085 BKN110 14/02 A2963 RMK AO2 RAB01E49 SLP001 P0000 T01390017 TSNO
KLOL 200853Z AUTO 25005KT 10SM SCT100 13/01 A2963 RMK AO2 PK WND 24035/0800 RAE11 SLP003 P0000 60000 T01280011 56014 TSNO
KLOL 200753Z AUTO 24024G32KT 9SM -RA CLR 16/01 A2964 RMK AO2 PK WND 24032/0751 RAB23 SLP008 P0000 T01560011 402331033 TSNO
KLOL 200653Z AUTO 20011G19KT 10SM CLR 14/02 A2964 RMK AO2 RAB02E22 SLP009 P0000 T01440017 TSNO
KLOL 200553Z AUTO 23017KT 10SM CLR 16/02 A2967 RMK AO2 RAB12E46 SLP024 P0000 60000 T01560017 10228 20128 56013 TSNO
KLOL 200453Z AUTO 25012KT 10SM CLR 14/00 A2968 RMK AO2 SLP033 T01440000 TSNO
KLOL 200353Z AUTO 22007KT 10SM CLR 15/M01 A2971 RMK AO2 RAB0255E06 SLP048 P0000 T01501006 TSNO
KLOL 200253Z AUTO 24012G17KT 10SM CLR 17/00 A2972 RMK AO2 RAB19E49 SLP057 P0000 60000 T01720000 56012 TSNO
KLOL 200153Z AUTO 26012KT 10SM CLR 17/02 A2973 RMK AO2 SLP063 T01670017 TSNO
KLOL 200053Z AUTO 24014KT 10SM CLR 20/00 A2972 RMK AO2 SLP058 T02000000 TSNO
KLOL 192353Z AUTO 22012KT 10SM CLR 23/00 A2976 RMK AO2 SLP065 T02280000 10233 20144 58029 TSNO
KLOL 192253Z AUTO 19007KT 10SM CLR 23/M08 A2979 RMK AO2 SLP076 T02281083 TSNO
KLOL 192153Z AUTO 18009KT 10SM CLR 22/M08 A2982 RMK AO2 SLP087 T02221083 TSNO
KLOL 192053Z AUTO 20007KT 10SM CLR 22/M08 A2985 RMK AO2 SLP096 T02221078 58028 TSNO